Time;durP1;ratioP1;P1;durP2;ratioP2;P2;SDS_P1;SDS_P2;PMS_P1;PMS_P2;Temp;Humidity;BMP_temperature;BMP_pressure;BME280_temperature;BME280_humidity;BME280_pressure;Samples;Min_cycle;Max_cycle;Signal;HPM_P1;HPM_P2
2021/09/06 00:02:19;;;;;;;3.55;3.35;;;17.00;99.90;;;;;;5096988;28;20019;-71
2021/09/06 00:04:45;;;;;;;4.28;3.97;;;17.30;99.90;;;;;;5095588;28;20020;-71
2021/09/06 00:07:10;;;;;;;4.63;3.42;;;16.90;99.90;;;;;;5096696;28;20020;-71
2021/09/06 00:09:36;;;;;;;3.00;2.80;;;17.00;99.90;;;;;;5095530;28;20476;-71
2021/09/06 00:12:02;;;;;;;4.10;3.80;;;16.90;99.90;;;;;;5097161;28;20024;-71
2021/09/06 00:14:28;;;;;;;6.50;4.45;;;16.90;99.90;;;;;;5095666;28;20028;-71
2021/09/06 00:16:55;;;;;;;4.00;3.70;;;16.90;99.90;;;;;;5096662;28;20031;-71
2021/09/06 00:19:23;;;;;;;7.70;3.72;;;16.90;99.90;;;;;;5096812;28;20024;-71
2021/09/06 00:21:49;;;;;;;3.45;3.25;;;16.90;99.90;;;;;;5096653;28;20020;-71
2021/09/06 00:24:15;;;;;;;4.75;4.35;;;17.00;99.90;;;;;;5096787;28;20032;-71
2021/09/06 00:26:41;;;;;;;3.92;3.63;;;16.70;99.90;;;;;;5083337;28;20009;-71
2021/09/06 00:29:07;;;;;;;4.20;3.80;;;16.40;99.90;;;;;;5070246;28;20476;-71
2021/09/06 00:31:33;;;;;;;4.00;3.60;;;16.50;99.90;;;;;;5076339;28;20035;-71
2021/09/06 00:33:59;;;;;;;4.30;4.00;;;16.70;99.90;;;;;;5076671;28;20392;-71
2021/09/06 00:36:25;;;;;;;3.78;3.47;;;16.40;99.90;;;;;;5076318;28;20110;-71
2021/09/06 00:38:51;;;;;;;4.47;3.90;;;16.80;99.90;;;;;;5076044;28;20028;-71
2021/09/06 00:41:18;;;;;;;4.38;3.60;;;16.30;99.90;;;;;;5076186;28;20017;-71
2021/09/06 00:43:44;;;;;;;3.53;3.22;;;16.40;99.90;;;;;;5076479;28;20048;-71
2021/09/06 00:46:10;;;;;;;5.13;3.88;;;16.60;99.90;;;;;;5076228;28;20016;-71
2021/09/06 00:48:36;;;;;;;4.30;3.85;;;16.50;99.90;;;;;;5076396;28;20028;-71
2021/09/06 00:51:02;;;;;;;3.42;3.22;;;16.40;99.90;;;;;;5076488;28;20017;-71
2021/09/06 00:53:28;;;;;;;7.78;4.22;;;16.40;99.90;;;;;;5076114;28;20027;-71
2021/09/06 00:55:54;;;;;;;5.03;4.57;;;16.40;99.90;;;;;;5076219;28;20049;-70
2021/09/06 00:58:22;;;;;;;4.53;4.15;;;16.60;99.90;;;;;;5076347;28;20108;-71
2021/09/06 01:00:48;;;;;;;4.80;4.30;;;16.40;99.90;;;;;;5076352;28;20017;-71
2021/09/06 01:03:14;;;;;;;5.03;4.53;;;16.10;99.90;;;;;;5076138;28;20095;-71
2021/09/06 01:05:40;;;;;;;4.50;4.10;;;16.40;99.90;;;;;;5076132;28;20050;-71
2021/09/06 01:08:06;;;;;;;4.05;3.75;;;16.30;99.90;;;;;;5074503;28;20116;-71
2021/09/06 01:10:32;;;;;;;4.72;4.28;;;16.30;99.90;;;;;;5076331;28;20028;-71
2021/09/06 01:12:58;;;;;;;4.03;3.58;;;16.20;99.90;;;;;;5076122;28;20036;-71
2021/09/06 01:15:24;;;;;;;5.13;3.95;;;16.20;99.90;;;;;;5076633;28;20024;-71
2021/09/06 01:17:50;;;;;;;8.00;4.40;;;16.30;99.90;;;;;;5080049;28;20030;-71
2021/09/06 01:20:16;;;;;;;4.53;4.13;;;16.20;99.90;;;;;;5080203;28;20029;-71
2021/09/06 01:22:42;;;;;;;4.63;4.25;;;16.30;99.90;;;;;;5079565;28;20542;-71
2021/09/06 01:25:09;;;;;;;4.35;4.05;;;15.90;99.90;;;;;;5079773;28;20027;-71
2021/09/06 01:27:34;;;;;;;4.32;3.83;;;15.80;99.90;;;;;;5079671;28;20066;-71
2021/09/06 01:30:00;;;;;;;4.80;4.40;;;16.10;99.90;;;;;;5079863;28;20029;-72
2021/09/06 01:32:26;;;;;;;4.25;3.88;;;15.70;99.90;;;;;;5079410;28;20043;-71
2021/09/06 01:34:52;;;;;;;4.63;4.22;;;16.10;99.90;;;;;;5079326;28;20025;-71
2021/09/06 01:37:18;;;;;;;4.47;4.18;;;15.90;99.90;;;;;;5079468;28;20033;-70
2021/09/06 01:39:44;;;;;;;5.20;4.70;;;16.20;99.90;;;;;;5079321;28;20119;-71
2021/09/06 01:42:10;;;;;;;4.72;4.40;;;15.90;99.90;;;;;;5079449;28;20034;-71
2021/09/06 01:44:36;;;;;;;4.28;3.92;;;15.80;99.90;;;;;;5079600;28;20055;-70
2021/09/06 01:47:02;;;;;;;4.63;4.22;;;15.80;99.90;;;;;;5079380;28;20059;-72
2021/09/06 01:49:28;;;;;;;4.07;3.78;;;15.80;99.90;;;;;;5079448;28;20028;-71
2021/09/06 01:51:54;;;;;;;4.25;3.95;;;15.80;99.90;;;;;;5077566;28;20028;-71
2021/09/06 01:54:20;;;;;;;4.88;4.32;;;15.70;99.90;;;;;;5079183;28;20024;-71
2021/09/06 01:56:46;;;;;;;4.18;3.88;;;15.70;99.90;;;;;;5079047;28;20024;-71
2021/09/06 01:59:11;;;;;;;3.90;3.60;;;15.60;99.90;;;;;;5079175;28;20056;-71
2021/09/06 02:01:37;;;;;;;3.95;3.65;;;15.90;99.90;;;;;;5079238;28;20021;-71
2021/09/06 02:04:03;;;;;;;3.75;3.55;;;15.70;99.90;;;;;;5079163;28;20493;-71
2021/09/06 02:06:29;;;;;;;3.60;3.40;;;15.70;99.90;;;;;;5079008;28;20024;-71
2021/09/06 02:08:55;;;;;;;4.53;4.13;;;15.50;99.90;;;;;;5078528;28;20492;-71
2021/09/06 02:11:21;;;;;;;4.28;3.97;;;15.70;99.90;;;;;;5078710;28;20025;-71
2021/09/06 02:13:47;;;;;;;4.25;3.92;;;15.70;99.90;;;;;;5078890;28;20028;-71
2021/09/06 02:16:12;;;;;;;5.38;4.13;;;15.50;99.90;;;;;;5078780;28;20023;-71
2021/09/06 02:18:38;;;;;;;4.32;4.00;;;15.50;99.90;;;;;;5078794;28;20048;-71
2021/09/06 02:21:04;;;;;;;6.50;4.18;;;15.70;99.90;;;;;;5078800;28;20025;-71
2021/09/06 02:23:30;;;;;;;4.10;3.80;;;15.70;99.90;;;;;;5078373;28;20031;-70
2021/09/06 02:25:56;;;;;;;3.58;3.35;;;15.70;99.90;;;;;;5078501;28;20081;-71
2021/09/06 02:28:22;;;;;;;3.80;3.47;;;15.70;99.90;;;;;;5077403;28;20028;-71
2021/09/06 02:30:48;;;;;;;4.05;3.75;;;15.60;99.90;;;;;;5078545;28;20021;-71
2021/09/06 02:33:13;;;;;;;4.10;3.80;;;15.70;99.90;;;;;;5078180;28;20497;-71
2021/09/06 02:35:39;;;;;;;4.07;3.78;;;15.50;99.90;;;;;;5078392;28;20041;-71
2021/09/06 02:38:05;;;;;;;4.22;3.80;;;15.20;99.90;;;;;;5078199;28;20028;-71
2021/09/06 02:40:31;;;;;;;4.00;3.70;;;15.30;99.90;;;;;;5078340;28;20020;-70
2021/09/06 02:42:57;;;;;;;4.93;3.90;;;15.10;99.90;;;;;;5078401;28;20476;-71
2021/09/06 02:45:23;;;;;;;5.47;4.32;;;15.20;99.90;;;;;;5078175;28;20558;-71
2021/09/06 02:47:49;;;;;;;4.10;3.80;;;15.40;99.90;;;;;;5078198;28;20024;-71
2021/09/06 02:50:15;;;;;;;5.38;4.40;;;15.60;99.90;;;;;;5076790;28;20031;-71
2021/09/06 02:52:42;;;;;;;5.00;4.60;;;15.30;99.90;;;;;;5078022;28;20039;-71
2021/09/06 02:55:08;;;;;;;4.35;3.95;;;15.40;99.90;;;;;;5077940;28;20031;-71
2021/09/06 02:57:34;;;;;;;5.30;4.90;;;15.20;99.90;;;;;;5077856;28;20024;-71
2021/09/06 03:00:00;;;;;;;4.45;4.05;;;15.40;99.90;;;;;;5077924;28;20028;-71
2021/09/06 03:02:26;;;;;;;4.35;4.05;;;15.50;99.90;;;;;;5077894;28;20048;-71
2021/09/06 03:04:52;;;;;;;4.65;4.22;;;15.40;99.90;;;;;;5076461;28;20423;-71
2021/09/06 03:07:18;;;;;;;4.85;4.45;;;15.20;99.90;;;;;;5077628;28;20025;-71
2021/09/06 03:09:43;;;;;;;4.15;3.85;;;15.10;99.90;;;;;;5077568;28;20392;-71
2021/09/06 03:12:09;;;;;;;4.20;3.90;;;15.30;99.90;;;;;;5077932;28;20032;-71
2021/09/06 03:14:35;;;;;;;4.38;4.07;;;14.90;99.90;;;;;;5077689;28;20020;-71
2021/09/06 03:17:01;;;;;;;3.58;3.38;;;15.20;99.90;;;;;;5077866;28;20052;-71
2021/09/06 03:19:27;;;;;;;4.60;4.03;;;15.30;99.90;;;;;;5077598;28;20035;-71
2021/09/06 03:21:53;;;;;;;4.57;4.20;;;15.10;99.90;;;;;;5077296;28;20024;-71
2021/09/06 03:24:19;;;;;;;4.70;4.20;;;15.30;99.90;;;;;;5077393;28;20103;-70
2021/09/06 03:26:44;;;;;;;4.13;3.85;;;15.30;99.90;;;;;;5077230;28;20085;-72
2021/09/06 03:29:11;;;;;;;4.55;4.25;;;15.20;99.90;;;;;;5077267;28;20106;-71
2021/09/06 03:31:36;;;;;;;5.32;4.82;;;15.20;99.90;;;;;;5077137;28;20024;-71
2021/09/06 03:34:03;;;;;;;4.28;3.97;;;15.00;99.90;;;;;;5077192;28;20026;-70
2021/09/06 03:36:28;;;;;;;4.97;4.53;;;15.10;99.90;;;;;;5077247;28;20475;-71
2021/09/06 03:38:55;;;;;;;4.13;3.83;;;15.10;99.90;;;;;;5076301;28;20035;-71
2021/09/06 03:41:23;;;;;;;5.40;4.88;;;14.90;99.90;;;;;;5077284;28;20420;-71
2021/09/06 03:43:50;;;;;;;5.00;4.55;;;15.20;99.90;;;;;;5077689;28;20114;-71
2021/09/06 03:46:16;;;;;;;5.22;4.70;;;15.10;99.90;;;;;;5077216;28;20030;-71
2021/09/06 03:48:42;;;;;;;5.32;4.63;;;15.20;99.90;;;;;;5077150;28;20052;-71
2021/09/06 03:51:08;;;;;;;5.28;4.53;;;15.20;99.90;;;;;;5077113;28;20032;-71
2021/09/06 03:53:35;;;;;;;5.35;4.95;;;15.30;99.90;;;;;;5076497;28;20535;-71
2021/09/06 03:56:01;;;;;;;4.03;3.72;;;15.10;99.90;;;;;;5077291;28;20038;-71
2021/09/06 03:58:27;;;;;;;4.80;4.47;;;15.30;99.90;;;;;;5076877;28;20020;-71
2021/09/06 04:00:53;;;;;;;4.15;3.85;;;15.20;99.90;;;;;;5076911;28;20082;-71
2021/09/06 04:03:19;;;;;;;5.65;5.03;;;15.10;99.90;;;;;;5076690;28;20036;-71
2021/09/06 04:05:44;;;;;;;4.18;3.95;;;15.10;99.90;;;;;;5076880;28;20021;-71
2021/09/06 04:08:10;;;;;;;4.88;4.47;;;15.10;99.90;;;;;;5076232;28;20028;-71
2021/09/06 04:10:36;;;;;;;4.97;3.95;;;15.00;99.90;;;;;;5077563;28;20059;-71
2021/09/06 04:13:02;;;;;;;5.95;4.55;;;15.20;99.90;;;;;;5075373;28;20021;-71
2021/09/06 04:15:28;;;;;;;4.32;4.03;;;15.20;99.90;;;;;;5076847;28;20095;-71
2021/09/06 04:17:54;;;;;;;5.50;5.07;;;14.80;99.90;;;;;;5076722;28;20120;-71
2021/09/06 04:20:20;;;;;;;4.35;4.05;;;14.70;99.90;;;;;;5076606;28;20485;-71
2021/09/06 04:22:46;;;;;;;4.60;4.30;;;14.80;99.90;;;;;;5076320;28;20540;-71
2021/09/06 04:25:12;;;;;;;5.22;4.82;;;14.90;99.90;;;;;;5076575;28;20020;-71
2021/09/06 04:27:38;;;;;;;5.65;5.15;;;15.10;99.90;;;;;;5076539;28;20469;-71
2021/09/06 04:30:05;;;;;;;5.03;4.57;;;14.90;99.90;;;;;;5076572;28;20036;-71
2021/09/06 04:32:31;;;;;;;4.35;4.05;;;14.80;99.90;;;;;;5076384;28;20511;-71
2021/09/06 04:34:57;;;;;;;5.65;5.25;;;14.70;99.90;;;;;;5076292;28;20024;-71
2021/09/06 04:37:23;;;;;;;5.35;4.95;;;15.00;99.90;;;;;;5076249;28;20112;-71
2021/09/06 04:39:49;;;;;;;5.53;5.03;;;14.80;99.90;;;;;;5076505;28;20082;-71
2021/09/06 04:42:15;;;;;;;5.80;5.40;;;14.80;99.90;;;;;;5076517;28;20393;-71
2021/09/06 04:44:41;;;;;;;6.07;5.55;;;14.60;99.90;;;;;;5076585;28;20020;-71
2021/09/06 04:47:07;;;;;;;5.35;4.95;;;14.70;99.90;;;;;;5076295;28;20025;-71
2021/09/06 04:49:33;;;;;;;6.25;5.55;;;14.80;99.90;;;;;;5076595;28;20104;-71
2021/09/06 04:52:00;;;;;;;5.30;4.90;;;14.80;99.90;;;;;;5078504;28;20086;-71
2021/09/06 04:54:26;;;;;;;5.82;5.35;;;14.70;99.90;;;;;;5080214;28;20583;-71
2021/09/06 04:56:52;;;;;;;6.82;6.13;;;15.00;99.90;;;;;;5080293;28;20661;-68
2021/09/06 04:59:21;;;;;;;5.95;5.47;;;14.20;99.90;;;;;;5075594;28;20030;-71
2021/09/06 05:01:47;;;;;;;6.55;5.97;;;14.80;99.90;;;;;;5066365;28;20017;-71
2021/09/06 05:04:13;;;;;;;5.85;5.30;;;14.90;99.90;;;;;;5079800;28;20020;-71
2021/09/06 05:06:39;;;;;;;4.97;4.65;;;14.90;99.90;;;;;;5081423;28;20106;-71
2021/09/06 05:09:05;;;;;;;5.57;5.03;;;15.00;99.90;;;;;;5100087;28;20500;-71
2021/09/06 05:11:32;;;;;;;4.95;4.45;;;14.40;99.90;;;;;;5100351;28;20056;-71
2021/09/06 05:13:58;;;;;;;5.88;5.45;;;14.50;99.90;;;;;;5100016;28;20019;-71
2021/09/06 05:16:25;;;;;;;6.53;5.90;;;14.60;99.90;;;;;;5100039;28;20028;-71
2021/09/06 05:18:51;;;;;;;5.85;5.18;;;11.20;99.90;;;;;;5087136;28;20021;-71
2021/09/06 05:21:18;;;;;;;5.55;5.15;;;14.60;99.90;;;;;;5079432;28;20023;-71
2021/09/06 05:23:44;;;;;;;5.28;4.97;;;12.50;99.90;;;;;;5079106;28;20021;-71
2021/09/06 05:26:10;;;;;;;5.95;5.55;;;15.90;99.90;;;;;;5079775;28;20468;-71
2021/09/06 05:28:36;;;;;;;5.20;4.88;;;14.30;99.90;;;;;;5079885;28;20032;-72
2021/09/06 05:31:03;;;;;;;6.03;5.63;;;14.50;99.90;;;;;;5078419;28;20029;-71
2021/09/06 05:33:29;;;;;;;5.97;5.45;;;14.80;99.90;;;;;;5077914;28;20385;-71
2021/09/06 05:35:55;;;;;;;5.70;5.30;;;14.40;99.90;;;;;;5078313;28;20519;-71
2021/09/06 05:38:21;;;;;;;6.75;6.25;;;18.20;99.90;;;;;;5079255;28;20392;-71
2021/09/06 05:40:47;;;;;;;6.40;5.90;;;12.30;99.90;;;;;;5079269;28;20039;-71
2021/09/06 05:43:13;;;;;;;6.78;6.32;;;14.40;99.90;;;;;;5079438;28;20021;-71
2021/09/06 05:45:39;;;;;;;6.90;6.50;;;14.50;99.90;;;;;;5079343;28;20453;-71
2021/09/06 05:48:05;;;;;;;6.88;6.47;;;15.60;99.90;;;;;;5079481;28;20020;-71
2021/09/06 05:50:31;;;;;;;8.77;7.88;;;14.60;99.90;;;;;;5079303;28;20087;-70
2021/09/06 05:52:57;;;;;;;8.18;7.57;;;14.70;99.90;;;;;;5079277;28;20104;-70
2021/09/06 05:55:23;;;;;;;6.80;6.30;;;14.60;99.90;;;;;;5079091;28;20068;-71
2021/09/06 05:57:49;;;;;;;7.25;6.70;;;14.60;99.90;;;;;;5079468;28;20029;-70
2021/09/06 06:00:15;;;;;;;7.88;7.28;;;14.80;99.90;;;;;;5078911;28;20480;-71
2021/09/06 06:02:41;;;;;;;8.40;7.65;;;14.60;99.90;;;;;;5078931;28;20017;-71
2021/09/06 06:05:07;;;;;;;7.28;6.78;;;15.10;99.90;;;;;;5078909;28;20035;-70
2021/09/06 06:07:33;;;;;;;7.30;6.80;;;14.80;99.90;;;;;;5078846;28;20013;-70
2021/09/06 06:09:59;;;;;;;8.25;7.57;;;15.00;99.90;;;;;;5078869;28;20020;-71
2021/09/06 06:12:28;;;;;;;8.20;7.40;;;15.20;99.90;;;;;;5078924;28;20028;-71
2021/09/06 06:14:55;;;;;;;6.85;6.35;;;15.00;99.90;;;;;;5078655;28;20033;-71
2021/09/06 06:17:22;;;;;;;6.85;6.40;;;15.50;99.90;;;;;;5079014;28;20107;-70
2021/09/06 06:19:47;;;;;;;10.73;9.40;;;15.40;99.90;;;;;;5078605;28;20028;-70
2021/09/06 06:22:13;;;;;;;8.95;8.25;;;15.60;99.90;;;;;;5078504;28;20027;-71
2021/09/06 06:24:39;;;;;;;7.15;6.65;;;16.00;99.90;;;;;;5078471;28;20099;-70
2021/09/06 06:27:05;;;;;;;14.43;12.05;;;15.70;99.90;;;;;;5078715;28;20016;-70
2021/09/06 06:29:31;;;;;;;10.27;9.35;;;16.00;99.90;;;;;;5078677;28;20037;-70
2021/09/06 06:31:57;;;;;;;7.68;7.07;;;16.50;99.90;;;;;;5078588;28;20481;-71
2021/09/06 06:34:23;;;;;;;8.05;7.25;;;16.70;99.90;;;;;;5078429;28;20025;-71
2021/09/06 06:36:49;;;;;;;8.18;7.30;;;16.70;99.90;;;;;;5077963;28;20123;-71
2021/09/06 06:39:17;;;;;;;5.82;5.43;;;16.80;99.90;;;;;;5078102;28;20056;-71
2021/09/06 06:41:45;;;;;;;11.30;10.10;;;17.10;99.90;;;;;;5078394;28;20017;-70
2021/09/06 06:44:11;;;;;;;15.43;12.52;;;17.40;99.90;;;;;;5078219;28;20673;-71
2021/09/06 06:46:37;;;;;;;12.10;10.68;;;17.80;99.90;;;;;;5078375;28;20048;-71
2021/09/06 06:49:02;;;;;;;10.60;9.32;;;17.90;99.90;;;;;;5078072;28;20052;-71
2021/09/06 06:51:28;;;;;;;9.63;8.73;;;18.10;99.90;;;;;;5078383;28;20027;-71
2021/09/06 06:53:54;;;;;;;9.15;8.18;;;18.40;99.90;;;;;;5077587;28;20025;-71
2021/09/06 06:56:21;;;;;;;8.13;7.43;;;18.90;99.90;;;;;;5078194;28;20031;-71
2021/09/06 06:58:46;;;;;;;12.05;10.75;;;19.10;99.90;;;;;;5077936;28;20113;-71
2021/09/06 07:01:12;;;;;;;11.57;10.02;;;20.00;99.90;;;;;;5077906;28;20490;-71
2021/09/06 07:03:38;;;;;;;18.15;12.32;;;19.40;99.90;;;;;;5077857;28;20029;-71
2021/09/06 07:06:04;;;;;;;13.80;11.27;;;19.80;99.90;;;;;;5078082;28;20017;-71
2021/09/06 07:08:30;;;;;;;16.60;12.65;;;19.90;99.90;;;;;;5077466;28;20017;-71
2021/09/06 07:10:55;;;;;;;12.13;10.82;;;20.30;99.90;;;;;;5077935;28;20512;-71
2021/09/06 07:13:21;;;;;;;15.10;12.68;;;20.30;99.90;;;;;;5077094;28;20037;-71
2021/09/06 07:15:47;;;;;;;13.43;11.10;;;20.60;99.90;;;;;;5076309;28;20027;-71
2021/09/06 07:18:13;;;;;;;14.80;12.07;;;20.50;99.90;;;;;;5077528;28;20507;-71
2021/09/06 07:20:39;;;;;;;10.20;9.18;;;20.50;99.90;;;;;;5077531;28;20032;-71
2021/09/06 07:23:05;;;;;;;13.73;11.73;;;;;;;;;;5077197;28;20020;-71
2021/09/06 07:25:31;;;;;;;11.73;10.43;;;21.70;99.90;;;;;;5077398;28;20021;-71
2021/09/06 07:27:57;;;;;;;12.90;11.57;;;21.10;99.90;;;;;;5077446;28;20078;-71
2021/09/06 07:30:23;;;;;;;14.82;12.95;;;;;;;;;;5077503;28;20920;-69
2021/09/06 07:32:51;;;;;;;11.52;10.32;;;21.50;99.90;;;;;;5077088;28;20036;-69
2021/09/06 07:35:16;;;;;;;8.82;7.93;;;21.40;99.90;;;;;;5077196;28;20107;-69
2021/09/06 07:37:43;;;;;;;11.95;10.70;;;;;;;;;;5076919;28;20499;-69
2021/09/06 07:40:10;;;;;;;11.50;10.32;;;;;;;;;;5077216;28;20086;-69
2021/09/06 07:42:37;;;;;;;12.52;10.07;;;;;;;;;;5077098;28;20052;-70
2021/09/06 07:45:04;;;;;;;9.82;8.80;;;;;;;;;;5077258;28;20016;-69
2021/09/06 07:47:30;;;;;;;11.70;10.25;;;22.70;99.90;;;;;;5077202;28;20074;-69
2021/09/06 07:49:57;;;;;;;14.32;9.77;;;;;;;;;;5075680;28;20063;-69
2021/09/06 07:52:27;;;;;;;12.73;9.35;;;22.80;99.90;;;;;;5076708;28;20059;-69
2021/09/06 07:54:53;;;;;;;11.15;9.38;;;22.90;99.90;;;;;;5076945;28;20078;-70
2021/09/06 07:57:19;;;;;;;7.93;6.47;;;;;;;;;;5076831;28;20020;-70
2021/09/06 07:59:45;;;;;;;14.38;10.30;;;23.10;99.90;;;;;;5076877;28;20024;-70
2021/09/06 08:02:10;;;;;;;9.93;8.25;;;23.60;99.90;;;;;;5076783;28;20092;-70
2021/09/06 08:04:36;;;;;;;11.10;7.85;;;24.10;99.90;;;;;;5077107;28;20052;-69
2021/09/06 08:07:03;;;;;;;8.88;7.82;;;23.90;99.90;;;;;;5076447;28;20035;-70
2021/09/06 08:09:29;;;;;;;15.40;8.38;;;24.00;99.90;;;;;;5077018;28;20381;-70
2021/09/06 08:11:56;;;;;;;7.78;6.85;;;;;;;;;;5076568;28;20024;-70
2021/09/06 08:14:27;;;;;;;7.38;6.20;;;24.70;99.90;;;;;;5076861;28;20473;-69
2021/09/06 08:16:53;;;;;;;9.05;7.78;;;25.00;99.90;;;;;;5076674;28;20021;-70
2021/09/06 08:19:19;;;;;;;7.97;7.18;;;25.40;99.90;;;;;;5076646;28;20025;-69
2021/09/06 08:21:45;;;;;;;9.07;5.30;;;25.50;99.90;;;;;;5076217;28;20498;-70
2021/09/06 08:24:13;;;;;;;6.72;5.90;;;25.70;99.90;;;;;;5076587;28;20074;-70
2021/09/06 08:26:39;;;;;;;10.07;5.80;;;26.40;99.90;;;;;;5076647;28;20016;-70
2021/09/06 08:29:05;;;;;;;5.43;4.68;;;26.60;99.90;;;;;;5076590;28;20047;-69
2021/09/06 08:31:31;;;;;;;8.35;5.65;;;26.70;99.90;;;;;;5076453;28;20096;-70
2021/09/06 08:33:58;;;;;;;8.00;4.38;;;27.30;99.90;;;;;;5076685;28;20033;-70
2021/09/06 08:36:24;;;;;;;5.97;4.85;;;27.40;99.90;;;;;;5075079;28;20033;-69
2021/09/06 08:38:51;;;;;;;5.30;3.83;;;28.10;99.90;;;;;;5076074;28;20028;-70
2021/09/06 08:41:16;;;;;;;4.78;4.28;;;28.60;99.90;;;;;;5076514;28;20021;-69
2021/09/06 08:43:42;;;;;;;4.30;3.83;;;28.50;99.90;;;;;;5076449;28;20489;-69
2021/09/06 08:46:08;;;;;;;5.13;4.00;;;29.10;99.90;;;;;;5076633;28;20052;-70
2021/09/06 08:48:34;;;;;;;3.90;3.28;;;29.50;99.90;;;;;;5076356;28;20025;-69
2021/09/06 08:51:01;;;;;;;5.93;4.53;;;29.70;99.90;;;;;;5076730;28;20032;-70
2021/09/06 08:53:27;;;;;;;4.72;3.88;;;30.10;99.90;;;;;;5076133;28;20043;-69
2021/09/06 08:55:54;;;;;;;4.32;3.92;;;30.20;99.90;;;;;;5076423;28;20029;-69
2021/09/06 08:58:20;;;;;;;3.53;3.22;;;30.50;99.90;;;;;;5076417;28;20362;-69
2021/09/06 09:00:47;;;;;;;4.38;3.35;;;30.70;99.90;;;;;;5076244;28;20084;-69
2021/09/06 09:03:13;;;;;;;3.95;3.55;;;31.00;99.90;;;;;;5076242;28;20031;-69
2021/09/06 09:05:55;;;;;;;2.55;2.35;;;31.40;99.90;;;;;;5076362;28;20024;-69
2021/09/06 09:08:23;;;;;;;3.85;2.45;;;31.60;99.90;;;;;;5075832;28;20032;-69
2021/09/06 09:10:49;;;;;;;3.70;2.80;;;31.60;99.90;;;;;;5076311;28;20392;-69
2021/09/06 09:13:16;;;;;;;2.70;2.50;;;31.80;99.90;;;;;;5076080;28;20028;-69
2021/09/06 09:15:52;;;;;;;3.28;2.92;;;31.80;99.90;;;;;;5076184;28;20020;-69
2021/09/06 09:18:33;;;;;;;3.53;2.05;;;32.00;99.70;;;;;;5076052;28;20024;-69
2021/09/06 09:21:11;;;;;;;2.90;2.70;;;32.30;99.20;;;;;;5075145;28;20048;-69
2021/09/06 09:23:43;;;;;;;4.25;3.45;;;32.70;99.00;;;;;;5075948;28;20082;-69
2021/09/06 09:26:09;;;;;;;4.40;2.72;;;32.60;97.60;;;;;;5075803;28;20097;-69
2021/09/06 09:28:39;;;;;;;4.43;2.53;;;32.80;98.30;;;;;;5076166;28;20047;-69
2021/09/06 09:31:11;;;;;;;4.13;3.38;;;33.30;97.90;;;;;;5076095;28;20515;-69
2021/09/06 09:33:43;;;;;;;3.78;2.72;;;33.60;96.20;;;;;;5075786;28;20093;-69
2021/09/06 09:36:09;;;;;;;2.25;2.05;;;33.90;96.30;;;;;;5075772;28;20044;-69
2021/09/06 09:38:36;;;;;;;5.82;3.20;;;34.30;96.10;;;;;;5078648;28;20086;-68
2021/09/06 09:41:10;;;;;;;4.50;2.50;;;34.70;95.40;;;;;;5079513;28;20078;-69
2021/09/06 09:43:36;;;;;;;4.13;2.83;;;34.80;93.90;;;;;;5079607;28;20052;-69
2021/09/06 09:46:05;;;;;;;2.47;2.17;;;34.80;93.10;;;;;;5079339;28;20020;-69
2021/09/06 09:48:31;;;;;;;2.45;2.25;;;34.60;93.40;;;;;;5079546;28;20017;-69
2021/09/06 09:50:57;;;;;;;3.05;2.10;;;34.60;93.20;;;;;;5079381;28;20084;-69
2021/09/06 09:53:23;;;;;;;2.78;2.47;;;34.80;92.80;;;;;;5078932;28;20550;-69
2021/09/06 09:55:49;;;;;;;3.28;2.05;;;35.10;91.90;;;;;;5079191;28;20020;-69
2021/09/06 09:58:16;;;;;;;4.80;2.08;;;35.50;91.90;;;;;;5079257;28;20044;-69
2021/09/06 10:00:46;;;;;;;2.83;2.20;;;35.80;91.00;;;;;;5079351;28;20393;-69
2021/09/06 10:03:13;;;;;;;2.42;1.70;;;35.90;90.40;;;;;;5079054;28;20085;-69
2021/09/06 10:05:40;;;;;;;1.90;1.40;;;36.20;90.40;;;;;;5079253;28;20048;-69
2021/09/06 10:08:15;;;;;;;3.33;1.50;;;36.40;90.00;;;;;;5078709;28;20540;-69
2021/09/06 10:10:41;;;;;;;1.70;1.20;;;36.60;89.80;;;;;;5079213;28;20496;-69
2021/09/06 10:13:11;;;;;;;1.58;1.48;;;37.10;89.80;;;;;;5078698;28;20086;-69
2021/09/06 10:15:39;;;;;;;1.30;1.15;;;37.50;88.90;;;;;;5079052;28;20025;-69
2021/09/06 10:18:19;;;;;;;1.95;1.30;;;37.90;93.70;;;;;;5078668;28;20040;-69
2021/09/06 10:20:46;;;;;;;2.72;1.60;;;;;;;;;;5078858;28;20033;-69
2021/09/06 10:23:13;;;;;;;1.73;1.63;;;38.20;84.90;;;;;;5078348;28;20024;-69
2021/09/06 10:25:41;;;;;;;2.75;1.83;;;38.00;81.70;;;;;;5078756;28;20009;-69
2021/09/06 10:28:09;;;;;;;2.90;1.38;;;37.70;81.90;;;;;;5078443;28;20035;-69
2021/09/06 10:30:40;;;;;;;1.83;1.40;;;37.80;82.40;;;;;;5078869;28;20055;-69
2021/09/06 10:33:22;;;;;;;3.58;1.75;;;37.90;82.20;;;;;;5077034;28;20052;-69
2021/09/06 10:35:48;;;;;;;2.53;1.48;;;37.90;81.60;;;;;;5078408;28;20033;-69
2021/09/06 10:38:16;;;;;;;1.65;1.55;;;38.10;80.60;;;;;;5078028;28;20029;-69
2021/09/06 10:40:44;;;;;;;6.35;1.50;;;38.30;78.70;;;;;;5078250;28;20033;-69
2021/09/06 10:43:21;;;;;;;1.70;1.05;;;38.30;78.30;;;;;;5078387;28;20021;-69
2021/09/06 10:45:50;;;;;;;2.05;1.38;;;38.60;77.90;;;;;;5078184;28;20099;-69
2021/09/06 10:48:22;;;;;;;1.45;1.35;;;38.80;77.10;;;;;;5077749;28;20098;-69
2021/09/06 10:50:49;;;;;;;1.05;1.00;;;38.90;75.50;;;;;;5078036;28;20036;-69
2021/09/06 10:53:23;;;;;;;3.47;0.80;;;39.20;75.40;;;;;;5077806;28;20093;-68
2021/09/06 10:55:51;;;;;;;1.85;1.20;;;39.30;74.30;;;;;;5078245;28;20501;-68
2021/09/06 10:58:17;;;;;;;1.58;1.17;;;39.30;72.70;;;;;;5078055;28;20035;-69
2021/09/06 11:00:56;;;;;;;2.08;0.82;;;39.10;73.90;;;;;;5078152;28;20077;-69
2021/09/06 11:03:24;;;;;;;5.05;0.80;;;39.40;73.80;;;;;;5077838;28;20118;-69
2021/09/06 11:05:51;;;;;;;2.33;1.23;;;39.70;73.80;;;;;;5077987;28;20020;-69
2021/09/06 11:08:23;;;;;;;1.85;1.17;;;40.00;71.50;;;;;;5077396;28;20021;-69
2021/09/06 11:10:49;;;;;;;1.05;0.82;;;39.70;70.60;;;;;;5077884;28;20024;-69
2021/09/06 11:13:15;;;;;;;0.75;0.73;;;39.80;70.90;;;;;;5077760;28;20025;-69
2021/09/06 11:15:41;;;;;;;1.10;1.00;;;40.10;71.40;;;;;;5077911;28;20484;-68
2021/09/06 11:18:09;;;;;;;5.00;1.20;;;40.20;70.30;;;;;;5077573;28;20082;-69
2021/09/06 11:20:36;;;;;;;0.98;0.80;;;40.10;70.50;;;;;;5077526;28;20029;-69
2021/09/06 11:23:05;;;;;;;1.10;0.80;;;40.20;70.20;;;;;;5077234;28;20017;-69
2021/09/06 11:25:32;;;;;;;1.00;0.85;;;40.30;69.60;;;;;;5077533;28;20062;-69
2021/09/06 11:28:09;;;;;;;1.00;0.90;;;40.70;70.30;;;;;;5077537;28;20044;-69
2021/09/06 11:30:37;;;;;;;2.67;1.10;;;40.70;68.90;;;;;;5077545;28;20027;-69
2021/09/06 11:33:06;;;;;;;1.00;0.63;;;40.70;68.10;;;;;;5077072;28;20029;-68
2021/09/06 11:35:33;;;;;;;0.90;0.60;;;40.70;67.10;;;;;;5077319;28;20053;-68
2021/09/06 11:38:00;;;;;;;0.93;0.70;;;40.80;67.40;;;;;;5077043;28;20036;-69
2021/09/06 11:40:27;;;;;;;2.38;0.75;;;40.90;67.70;;;;;;5077300;28;20052;-69
2021/09/06 11:42:53;;;;;;;2.88;0.80;;;40.80;67.50;;;;;;5077231;28;20025;-69
2021/09/06 11:45:21;;;;;;;2.47;0.60;;;40.90;67.50;;;;;;5077238;28;20020;-69
2021/09/06 11:47:48;;;;;;;1.02;0.85;;;41.10;66.40;;;;;;5077454;28;20048;-69
2021/09/06 11:50:15;;;;;;;2.15;0.65;;;41.40;66.00;;;;;;5077101;28;20443;-68
2021/09/06 11:52:43;;;;;;;0.63;0.63;;;41.60;65.10;;;;;;5076853;28;20038;-69
2021/09/06 11:55:19;;;;;;;4.25;0.88;;;42.10;62.90;;;;;;5076870;28;20069;-69
2021/09/06 11:57:46;;;;;;;1.95;0.60;;;42.10;64.80;;;;;;5077148;28;20116;-69
2021/09/06 12:00:15;;;;;;;0.57;0.57;;;41.70;64.00;;;;;;5076490;28;20020;-69
2021/09/06 12:02:52;;;;;;;1.58;0.60;;;40.90;64.40;;;;;;5076965;28;20032;-68
2021/09/06 12:05:19;;;;;;;1.75;0.82;;;40.90;65.30;;;;;;5076767;28;20029;-68
2021/09/06 12:07:49;;;;;;;2.35;1.27;;;41.10;65.20;;;;;;5076616;28;20017;-69
2021/09/06 12:10:33;;;;;;;0.60;0.52;;;41.10;64.30;;;;;;5076661;28;20504;-69
2021/09/06 12:13:07;;;;;;;0.93;0.70;;;41.40;63.90;;;;;;5076933;28;20020;-69
2021/09/06 12:15:50;;;;;;;2.25;0.70;;;41.10;64.20;;;;;;5077055;28;20073;-68
2021/09/06 12:18:16;;;;;;;3.97;0.73;;;40.70;63.90;;;;;;5076678;28;20031;-68
2021/09/06 12:20:43;;;;;;;1.10;0.68;;;40.60;64.70;;;;;;5076810;28;20501;-68
2021/09/06 12:23:26;;;;;;;1.40;0.50;;;40.50;64.20;;;;;;5076317;28;20074;-68
2021/09/06 12:25:52;;;;;;;0.70;0.52;;;40.60;64.50;;;;;;5076645;28;20453;-69
2021/09/06 12:28:18;;;;;;;0.63;0.60;;;40.90;63.30;;;;;;5063270;28;20451;-68
2021/09/06 12:30:59;;;;;;;1.33;0.70;;;41.10;62.60;;;;;;5076546;28;20035;-69
2021/09/06 12:33:25;;;;;;;0.68;0.60;;;41.30;61.30;;;;;;5076476;28;20469;-68
2021/09/06 12:35:51;;;;;;;1.27;0.70;;;41.40;61.70;;;;;;5076430;28;20192;-69
2021/09/06 12:38:17;;;;;;;1.35;0.63;;;41.50;62.70;;;;;;5076020;28;20377;-68
2021/09/06 12:40:43;;;;;;;0.35;0.35;;;41.10;62.20;;;;;;5076630;28;20040;-69
2021/09/06 12:43:08;;;;;;;2.67;0.65;;;41.20;62.40;;;;;;5076536;28;20024;-68
2021/09/06 12:45:34;;;;;;;1.00;0.52;;;41.40;62.40;;;;;;5076648;28;20048;-68
2021/09/06 12:48:00;;;;;;;0.80;0.60;;;41.40;62.10;;;;;;5076693;28;20021;-69